Time;durP1;ratioP1;P1;durP2;ratioP2;P2;SDS_P1;SDS_P2;PMS_P1;PMS_P2;Temp;Humidity;BMP_temperature;BMP_pressure;BME280_temperature;BME280_humidity;BME280_pressure;Samples;Min_cycle;Max_cycle;Signal;HPM_P1;HPM_P2
2022/09/06 00:01:12;;;;;;;6.15;5.65;;;;;;;;;;10147407;28;20050;-69
2022/09/06 00:06:15;;;;;;;6.20;5.70;;;;;;;;;;10150693;28;20497;-69
2022/09/06 00:11:12;;;;;;;6.43;5.82;;;;;;;;;;10140252;28;20054;-69
2022/09/06 00:16:11;;;;;;;6.47;5.80;;;;;;;;;;10153028;28;20512;-69
2022/09/06 00:21:15;;;;;;;6.47;5.85;;;;;;;;;;10135561;28;20093;-69
2022/09/06 00:26:12;;;;;;;7.18;6.10;;;;;;;;;;10140608;28;20046;-69
2022/09/06 00:31:09;;;;;;;6.22;5.68;;;;;;;;;;10139636;28;20101;-69
2022/09/06 00:36:06;;;;;;;6.20;5.57;;;;;;;;;;10153714;28;20038;-69
2022/09/06 00:41:04;;;;;;;6.63;5.90;;;;;;;;;;10138493;28;21441;-69
2022/09/06 00:46:01;;;;;;;6.50;5.90;;;;;;;;;;10146429;28;20560;-69
2022/09/06 00:50:59;;;;;;;5.88;5.40;;;;;;;;;;10143241;28;20046;-69
2022/09/06 00:55:56;;;;;;;6.20;5.70;;;;;;;;;;10141277;28;22396;-69
2022/09/06 01:00:52;;;;;;;6.57;5.78;;;;;;;;;;10141617;28;20141;-68
2022/09/06 01:05:54;;;;;;;6.53;5.47;;;;;;;;;;10138116;28;20061;-68
2022/09/06 01:11:14;;;;;;;7.97;5.80;;;;;;;;;;10148490;28;20069;-69
2022/09/06 01:16:10;;;;;;;6.63;6.00;;;;;;;;;;10136808;28;20456;-70
2022/09/06 01:21:18;;;;;;;6.05;5.53;;;;;;;;;;10142797;28;20172;-70
2022/09/06 01:26:14;;;;;;;6.20;5.70;;;;;;;;;;10133804;28;20050;-69
2022/09/06 01:31:17;;;;;;;7.20;6.57;;;;;;;;;;10148724;28;20054;-69
2022/09/06 01:36:15;;;;;;;6.72;5.57;;;;;;;;;;10148326;28;20062;-70
2022/09/06 01:41:12;;;;;;;6.68;6.07;;;;;;;;;;10143808;28;20108;-70
2022/09/06 01:46:23;;;;;;;8.38;5.57;;;;;;;;;;10141924;28;20070;-70
2022/09/06 01:51:28;;;;;;;6.28;5.68;;;;;;;;;;10148152;28;20093;-69
2022/09/06 01:56:31;;;;;;;6.25;5.43;;;;;;;;;;10145627;28;20516;-70
2022/09/06 02:01:36;;;;;;;5.95;5.45;;;;;;;;;;10145064;28;20074;-70
2022/09/06 02:06:37;;;;;;;6.00;5.50;;;;;;;;;;10149826;28;20656;-70
2022/09/06 02:11:40;;;;;;;6.05;5.55;;;;;;;;;;10144411;28;20707;-70
2022/09/06 02:16:38;;;;;;;6.05;5.55;;;;;;;;;;10144800;28;20093;-69
2022/09/06 02:21:36;;;;;;;6.07;5.57;;;;;;;;;;10142618;28;20053;-70
2022/09/06 02:26:35;;;;;;;6.80;5.70;;;;;;;;;;10142097;28;20138;-70
2022/09/06 02:31:41;;;;;;;7.07;6.38;;;;;;;;;;10146565;28;20424;-69
2022/09/06 02:36:38;;;;;;;6.00;5.30;;;;;;;;;;10145244;28;20054;-70
2022/09/06 02:41:34;;;;;;;6.03;5.43;;;;;;;;;;10145943;28;20070;-69
2022/09/06 02:46:30;;;;;;;6.40;5.72;;;;;;;;;;10145498;28;20069;-69
2022/09/06 02:51:27;;;;;;;6.10;5.60;;;;;;;;;;10130258;28;20512;-69
2022/09/06 02:56:23;;;;;;;6.65;6.05;;;;;;;;;;10145000;28;20457;-69
2022/09/06 03:01:20;;;;;;;6.20;5.60;;;;;;;;;;10147216;28;20130;-70
2022/09/06 03:06:16;;;;;;;5.63;5.13;;;;;;;;;;10142856;28;20224;-69
2022/09/06 03:11:13;;;;;;;6.72;5.38;;;;;;;;;;10143690;28;20070;-69
2022/09/06 03:16:09;;;;;;;5.72;5.13;;;;;;;;;;10133405;28;20039;-69
2022/09/06 03:21:05;;;;;;;8.07;6.03;;;;;;;;;;10134664;28;20051;-69
2022/09/06 03:26:02;;;;;;;6.10;5.60;;;;;;;;;;10147193;28;20101;-69
2022/09/06 03:30:58;;;;;;;8.43;5.80;;;;;;;;;;10136382;28;20066;-68
2022/09/06 03:35:56;;;;;;;7.32;6.70;;;;;;;;;;10136465;28;20061;-69
2022/09/06 03:40:53;;;;;;;7.93;5.90;;;;;;;;;;10136924;28;20050;-68
2022/09/06 03:45:50;;;;;;;7.50;6.00;;;;;;;;;;10146297;28;20058;-68
2022/09/06 03:50:48;;;;;;;7.30;6.60;;;;;;;;;;10145847;28;20047;-68
2022/09/06 03:55:45;;;;;;;6.80;6.00;;;;;;;;;;10141135;28;20124;-68
2022/09/06 04:00:41;;;;;;;8.65;6.50;;;;;;;;;;10133770;28;20070;-68
2022/09/06 04:05:38;;;;;;;6.93;6.22;;;;;;;;;;10138139;28;20162;-68
2022/09/06 04:10:34;;;;;;;6.88;6.28;;;;;;;;;;10132780;28;20565;-68
2022/09/06 04:15:30;;;;;;;6.82;6.32;;;;;;;;;;10129626;28;20685;-68
2022/09/06 04:20:27;;;;;;;8.48;6.68;;;;;;;;;;10131392;28;20508;-68
2022/09/06 04:25:23;;;;;;;7.47;6.72;;;;;;;;;;10133930;28;20047;-68
2022/09/06 04:30:19;;;;;;;7.90;7.03;;;;;;;;;;10152433;28;20074;-68
2022/09/06 04:35:16;;;;;;;7.25;6.60;;;;;;;;;;10142920;28;20047;-68
2022/09/06 04:40:12;;;;;;;8.30;7.60;;;;;;;;;;10129530;28;20069;-69
2022/09/06 04:45:09;;;;;;;8.93;8.02;;;;;;;;;;10128811;28;20042;-69
2022/09/06 04:50:06;;;;;;;11.13;7.80;;;;;;;;;;10118273;28;20465;-67
2022/09/06 04:55:02;;;;;;;8.75;8.00;;;;;;;;;;10124961;28;20050;-67
2022/09/06 04:59:58;;;;;;;9.18;8.32;;;;;;;;;;10140871;28;20801;-68
2022/09/06 05:04:55;;;;;;;8.73;8.00;;;;;;;;;;10131507;28;20054;-68
2022/09/06 05:09:52;;;;;;;8.77;8.05;;;;;;;;;;10124261;28;20081;-68
2022/09/06 05:14:48;;;;;;;9.05;7.97;;;;;;;;;;10145408;28;20483;-68
2022/09/06 05:19:45;;;;;;;9.18;8.50;;;;;;;;;;10131715;28;20093;-69
2022/09/06 05:24:41;;;;;;;8.90;8.02;;;;;;;;;;10124735;28;20074;-69
2022/09/06 05:29:37;;;;;;;9.43;7.88;;;;;;;;;;10132216;28;20102;-69
2022/09/06 05:34:34;;;;;;;9.10;8.40;;;;;;;;;;10124649;28;20050;-69
2022/09/06 05:39:30;;;;;;;8.90;8.20;;;;;;;;;;10132705;28;20141;-70
2022/09/06 05:44:26;;;;;;;9.02;8.23;;;;;;;;;;10126623;28;20490;-69
2022/09/06 05:49:23;;;;;;;7.82;7.05;;;;;;;;;;10126201;28;20585;-69
2022/09/06 05:54:19;;;;;;;7.25;6.68;;;;;;;;;;10139091;28;20134;-70
2022/09/06 05:59:16;;;;;;;7.55;6.35;;;;;;;;;;10145316;28;20512;-69
2022/09/06 06:04:12;;;;;;;7.45;6.80;;;;;;;;;;10146222;28;20034;-70
2022/09/06 06:09:08;;;;;;;7.18;6.50;;;;;;;;;;10144869;28;20129;-70
2022/09/06 06:14:05;;;;;;;8.48;6.25;;;;;;;;;;10133808;28;20077;-69
2022/09/06 06:19:01;;;;;;;9.07;6.60;;;;;;;;;;10127630;28;20105;-69
2022/09/06 06:24:01;;;;;;;6.70;6.10;;;;;;;;;;10129868;28;20134;-69
2022/09/06 06:29:00;;;;;;;7.25;6.60;;;;;;;;;;10131794;28;20070;-69
2022/09/06 06:33:57;;;;;;;8.35;7.00;;;;;;;;;;10129687;28;20138;-71
2022/09/06 06:38:54;;;;;;;8.05;5.78;;;;;;;;;;10121010;28;20148;-71
2022/09/06 06:43:54;;;;;;;7.15;6.10;;;;;;;;;;10136423;28;20054;-70
2022/09/06 06:48:53;;;;;;;6.57;6.00;;;;;;;;;;10140280;28;20038;-70
2022/09/06 06:53:51;;;;;;;6.88;6.18;;;;;;;;;;10151644;28;20492;-70
2022/09/06 06:58:49;;;;;;;6.28;5.78;;;;;;;;;;10147258;28;20081;-70
2022/09/06 07:03:48;;;;;;;7.00;6.30;;;;;;;;;;10149644;28;20082;-70
2022/09/06 07:08:45;;;;;;;9.18;6.43;;;;;;;;;;10152001;28;20117;-70
2022/09/06 07:13:41;;;;;;;6.72;6.07;;;;;;;;;;10146447;28;20074;-70
2022/09/06 07:18:41;;;;;;;7.68;6.20;;;;;;;;;;10147435;28;20050;-70
2022/09/06 07:23:38;;;;;;;11.85;5.88;;;;;;;;;;10144446;28;20139;-71
2022/09/06 07:28:59;;;;;;;7.13;6.28;;;;;;;;;;10146302;28;20042;-70
2022/09/06 07:33:56;;;;;;;7.10;6.32;;;;;;;;;;10152899;28;20274;-70
2022/09/06 07:38:53;;;;;;;6.75;6.05;;;;;;;;;;10155309;28;21400;-70
2022/09/06 07:43:53;;;;;;;6.68;6.07;;;;;;;;;;10146212;28;20112;-70
2022/09/06 07:48:49;;;;;;;8.63;6.75;;;;;;;;;;10145967;28;20038;-70
2022/09/06 07:53:49;;;;;;;7.15;6.47;;;;;;;;;;10141630;28;20125;-70
2022/09/06 07:58:48;;;;;;;7.90;5.85;;;;;;;;;;10142898;28;20046;-70
2022/09/06 08:03:45;;;;;;;9.02;7.07;;;;;;;;;;10148999;28;20484;-70
2022/09/06 08:08:41;;;;;;;6.80;6.20;;;;;;;;;;10149619;28;20089;-70
2022/09/06 08:13:55;;;;;;;13.18;7.20;;;;;;;;;;10146271;28;20096;-69
2022/09/06 08:18:52;;;;;;;7.53;6.68;;;;;;;;;;10128753;28;20153;-69
2022/09/06 08:23:50;;;;;;;8.13;6.65;;;;;;;;;;10135567;28;20092;-69
2022/09/06 08:28:46;;;;;;;7.65;6.75;;;;;;;;;;10136270;28;20125;-68
2022/09/06 08:33:42;;;;;;;7.30;6.68;;;;;;;;;;10136853;28;20138;-70
2022/09/06 08:38:39;;;;;;;7.07;6.50;;;;;;;;;;10130575;28;20134;-71
2022/09/06 08:43:36;;;;;;;7.00;6.40;;;;;;;;;;10143725;28;20050;-71
2022/09/06 08:48:35;;;;;;;7.22;6.43;;;;;;;;;;10152992;28;20112;-71
2022/09/06 08:53:34;;;;;;;8.93;6.72;;;;;;;;;;10141594;28;20072;-71
2022/09/06 08:58:36;;;;;;;8.18;7.05;;;;;;;;;;10143785;28;20559;-71
2022/09/06 09:03:37;;;;;;;7.40;6.80;;;;;;;;;;10149017;28;20137;-71
2022/09/06 09:08:39;;;;;;;7.22;6.63;;;;;;;;;;10142648;28;20042;-71
2022/09/06 09:13:54;;;;;;;6.80;6.30;;;;;;;;;;10146491;28;20137;-71
2022/09/06 09:18:52;;;;;;;7.03;6.53;;;;;;;;;;10144124;28;20056;-71
2022/09/06 09:23:53;;;;;;;9.23;6.60;;;;;;;;;;10143057;28;20082;-71
2022/09/06 09:29:09;;;;;;;8.00;7.30;;;;;;;;;;10142910;28;20042;-71
2022/09/06 09:34:10;;;;;;;8.20;7.47;;;;;;;;;;10140626;28;20841;-71
2022/09/06 09:39:09;;;;;;;8.18;7.47;;;;;;;;;;10129498;28;20070;-70
2022/09/06 09:44:10;;;;;;;9.77;7.30;;;;;;;;;;10140414;28;20563;-71
2022/09/06 09:49:27;;;;;;;8.65;7.82;;;;;;;;;;10134492;28;20046;-70
2022/09/06 09:54:31;;;;;;;10.75;7.15;;;;;;;;;;10142267;28;20046;-70
2022/09/06 09:59:33;;;;;;;11.30;7.30;;;;;;;;;;10133706;28;20100;-70
2022/09/06 10:04:37;;;;;;;8.15;6.72;;;;;;;;;;10143240;28;20470;-70
2022/09/06 10:09:38;;;;;;;10.30;7.07;;;;;;;;;;10143632;28;20039;-70
2022/09/06 10:14:41;;;;;;;7.63;6.88;;;;;;;;;;10146852;28;20089;-70
2022/09/06 10:19:39;;;;;;;7.60;7.00;;;;;;;;;;10129607;28;20074;-71
2022/09/06 10:24:54;;;;;;;7.57;6.88;;;;;;;;;;10123482;28;20051;-72
2022/09/06 10:29:57;;;;;;;6.78;6.10;;;;;;;;;;10124622;28;20082;-71
2022/09/06 10:35:13;;;;;;;7.40;6.70;;;;;;;;;;10132040;28;20085;-71
2022/09/06 10:40:11;;;;;;;7.90;7.20;;;;;;;;;;10130398;28;20085;-71
2022/09/06 10:45:37;;;;;;;7.40;6.70;;;;;;;;;;10129042;28;20055;-72
2022/09/06 10:50:52;;;;;;;8.02;7.05;;;;;;;;;;10095809;28;20094;-71
2022/09/06 10:55:51;;;;;;;8.00;7.20;;;;;;;;;;10130793;28;20071;-69
2022/09/06 11:00:49;;;;;;;7.28;6.20;;;;;;;;;;10125192;28;20070;-69
2022/09/06 11:05:49;;;;;;;13.32;7.13;;;;;;;;;;10128004;28;20496;-69
2022/09/06 11:10:48;;;;;;;9.32;7.00;;;;;;;;;;10126139;28;20116;-71
2022/09/06 11:15:48;;;;;;;8.98;6.93;;;;;;;;;;10125514;28;20054;-71
2022/09/06 11:20:56;;;;;;;8.98;7.03;;;;;;;;;;10143965;28;20349;-72
2022/09/06 11:26:02;;;;;;;7.28;6.57;;;;;;;;;;10142939;28;20109;-69
2022/09/06 11:30:58;;;;;;;7.43;6.82;;;;;;;;;;10147550;28;20062;-70
2022/09/06 11:36:15;;;;;;;7.88;7.07;;;;;;;;;;10142073;28;20051;-68
2022/09/06 11:41:16;;;;;;;7.63;6.88;;;;;;;;;;10140197;28;20684;-68
2022/09/06 11:46:31;;;;;;;8.10;7.40;;;;;;;;;;10137138;28;20070;-69
2022/09/06 11:51:35;;;;;;;7.57;6.97;;;;;;;;;;10145297;28;20043;-69
2022/09/06 11:56:32;;;;;;;7.68;7.05;;;;;;;;;;10129801;28;20587;-68
2022/09/06 12:01:28;;;;;;;6.97;6.35;;;;;;;;;;10138888;28;20070;-68
2022/09/06 12:06:26;;;;;;;7.13;6.50;;;;;;;;;;10132067;28;20122;-68
2022/09/06 12:11:36;;;;;;;8.07;6.68;;;;;;;;;;10139810;28;20080;-68
2022/09/06 12:16:51;;;;;;;8.10;7.07;;;;;;;;;;10150591;28;20046;-68
2022/09/06 12:21:51;;;;;;;7.72;6.88;;;;;;;;;;10145402;28;20093;-68
2022/09/06 12:26:51;;;;;;;8.35;7.65;;;;;;;;;;10141400;28;20501;-68
2022/09/06 12:31:52;;;;;;;7.70;6.97;;;;;;;;;;10134808;28;20066;-69
2022/09/06 12:36:53;;;;;;;7.95;7.35;;;;;;;;;;10134598;28;20046;-69
2022/09/06 12:41:53;;;;;;;9.27;7.38;;;;;;;;;;10130123;28;20700;-69
2022/09/06 12:46:50;;;;;;;8.27;7.50;;;;;;;;;;10137846;28;20097;-69
2022/09/06 12:51:47;;;;;;;8.27;7.63;;;;;;;;;;10129254;28;20100;-69
2022/09/06 12:56:43;;;;;;;8.23;7.53;;;;;;;;;;10139879;28;20552;-69
2022/09/06 13:01:43;;;;;;;10.10;7.35;;;;;;;;;;10133358;28;20050;-69
2022/09/06 13:06:41;;;;;;;8.38;7.53;;;;;;;;;;10125660;28;20130;-69
2022/09/06 13:11:40;;;;;;;8.13;7.43;;;;;;;;;;10145445;28;20133;-69
2022/09/06 13:16:41;;;;;;;8.10;7.35;;;;;;;;;;10143516;28;20141;-69
2022/09/06 13:21:38;;;;;;;7.47;6.80;;;;;;;;;;10155095;28;20441;-69
2022/09/06 13:26:36;;;;;;;8.38;7.60;;;;;;;;;;10144269;28;20728;-69
2022/09/06 13:31:32;;;;;;;8.88;7.80;;;;;;;;;;10150735;28;20154;-69
2022/09/06 13:36:30;;;;;;;8.68;7.82;;;;;;;;;;10146813;28;20038;-69
2022/09/06 13:41:26;;;;;;;8.27;7.60;;;;;;;;;;10143296;28;20105;-69
2022/09/06 13:46:23;;;;;;;8.38;7.40;;;;;;;;;;10144167;28;20523;-69
2022/09/06 13:51:19;;;;;;;9.48;7.45;;;;;;;;;;10146372;28;20050;-69
2022/09/06 13:56:16;;;;;;;8.93;8.02;;;;;;;;;;10146070;28;20691;-69
2022/09/06 14:01:13;;;;;;;8.57;7.90;;;;;;;;;;10144807;28;20133;-70
2022/09/06 14:06:09;;;;;;;8.18;7.03;;;;;;;;;;10140394;28;20070;-69
2022/09/06 14:11:06;;;;;;;9.18;8.35;;;;;;;;;;10141024;28;20104;-69
2022/09/06 14:16:04;;;;;;;7.68;6.60;;;;;;;;;;10149915;28;20085;-69
2022/09/06 14:21:01;;;;;;;7.40;6.70;;;;;;;;;;10146794;28;20042;-69
2022/09/06 14:25:58;;;;;;;8.85;7.15;;;;;;;;;;10139699;28;20070;-69
2022/09/06 14:30:54;;;;;;;7.07;6.45;;;;;;;;;;10149134;28;20520;-69
2022/09/06 14:35:51;;;;;;;7.68;6.97;;;;;;;;;;10132272;28;20531;-69
2022/09/06 14:40:47;;;;;;;11.27;7.18;;;;;;;;;;10144390;28;20053;-69
2022/09/06 14:45:43;;;;;;;7.60;6.80;;;;;;;;;;10142550;28;20125;-69
2022/09/06 14:50:40;;;;;;;7.75;6.68;;;;;;;;;;10142181;28;20116;-69
2022/09/06 14:55:38;;;;;;;7.32;6.72;;;;;;;;;;10139842;28;20046;-69
2022/09/06 15:00:35;;;;;;;10.80;7.05;;;;;;;;;;10145551;28;20066;-69
2022/09/06 15:05:31;;;;;;;8.30;7.25;;;;;;;;;;10147638;28;20066;-69
2022/09/06 15:10:28;;;;;;;8.68;6.95;;;;;;;;;;10137475;28;20046;-69
2022/09/06 15:15:24;;;;;;;8.05;7.25;;;;;;;;;;10143800;28;20074;-69
2022/09/06 15:20:21;;;;;;;7.43;6.82;;;;;;;;;;10148456;28;20084;-69
2022/09/06 15:25:17;;;;;;;11.23;7.05;;;;;;;;;;10127656;28;20213;-69
2022/09/06 15:30:14;;;;;;;8.35;7.15;;;;;;;;;;10132866;28;20062;-70
2022/09/06 15:35:10;;;;;;;7.57;6.80;;;;;;;;;;10140511;28;20075;-68
2022/09/06 15:40:07;;;;;;;8.13;7.53;;;;;;;;;;10129249;28;21660;-69
2022/09/06 15:45:05;;;;;;;10.32;7.57;;;;;;;;;;10128325;28;20489;-70
2022/09/06 15:50:01;;;;;;;8.27;7.57;;;;;;;;;;10132622;28;20129;-70
2022/09/06 16:00:12;;;;;;;8.30;7.50;;;;;;;;;;10124085;28;20109;-69
2022/09/06 16:05:09;;;;;;;8.82;7.28;;;;;;;;;;10134886;28;20556;-70
2022/09/06 16:10:05;;;;;;;8.25;7.43;;;;;;;;;;10129478;28;20500;-70
2022/09/06 16:15:02;;;;;;;8.02;7.35;;;;;;;;;;10129278;28;20101;-69
2022/09/06 16:20:00;;;;;;;9.88;6.80;;;;;;;;;;10127345;28;20481;-70
2022/09/06 16:24:56;;;;;;;8.25;6.90;;;;;;;;;;10123407;28;20166;-69
2022/09/06 16:29:53;;;;;;;7.95;7.07;;;;;;;;;;10141787;28;20042;-69
2022/09/06 16:34:50;;;;;;;7.88;7.15;;;;;;;;;;10150047;28;20109;-69
2022/09/06 16:39:46;;;;;;;7.38;6.68;;;;;;;;;;10138280;28;20121;-70
2022/09/06 16:44:43;;;;;;;7.20;6.53;;;;;;;;;;10149706;28;20042;-69
2022/09/06 16:49:39;;;;;;;7.28;6.45;;;;;;;;;;10145982;28;20463;-69
2022/09/06 16:54:36;;;;;;;7.20;6.60;;;;;;;;;;10144918;28;20081;-68
2022/09/06 16:59:33;;;;;;;7.20;6.60;;;;;;;;;;10146192;28;20088;-74
2022/09/06 17:04:29;;;;;;;7.28;6.68;;;;;;;;;;10142648;28;20038;-69
2022/09/06 17:09:25;;;;;;;8.10;7.40;;;;;;;;;;10143332;28;20141;-70
2022/09/06 17:14:22;;;;;;;8.02;7.32;;;;;;;;;;10125419;28;20105;-69
2022/09/06 17:19:18;;;;;;;7.85;7.07;;;;;;;;;;10131324;28;20135;-69
2022/09/06 17:24:15;;;;;;;13.45;6.63;;;;;;;;;;10129488;28;20173;-70
2022/09/06 17:29:11;;;;;;;7.40;6.82;;;;;;;;;;10133011;28;20062;-70
2022/09/06 17:34:08;;;;;;;9.75;7.10;;;;;;;;;;10131025;28;20116;-70
2022/09/06 17:39:12;;;;;;;7.50;6.70;;;;;;;;;;10118458;28;20201;-70
2022/09/06 17:44:11;;;;;;;7.25;6.55;;;;;;;;;;10142626;28;20054;-70
2022/09/06 17:49:08;;;;;;;8.45;7.05;;;;;;;;;;10116840;28;20813;-70
2022/09/06 17:54:05;;;;;;;7.57;6.70;;;;;;;;;;10105844;28;20471;-68
2022/09/06 17:59:02;;;;;;;9.07;6.80;;;;;;;;;;10112137;28;20133;-69
2022/09/06 18:03:59;;;;;;;8.73;7.25;;;;;;;;;;10114243;28;20070;-69
2022/09/06 18:08:57;;;;;;;7.80;7.07;;;;;;;;;;10115248;28;20066;-69
2022/09/06 18:13:54;;;;;;;7.47;6.75;;;;;;;;;;10116158;28;20376;-70
2022/09/06 18:18:52;;;;;;;9.57;7.00;;;;;;;;;;10117951;28;20453;-69
2022/09/06 18:23:48;;;;;;;10.77;7.00;;;;;;;;;;10112257;28;20849;-69
2022/09/06 18:28:45;;;;;;;7.43;6.72;;;;;;;;;;10121855;28;20043;-69
2022/09/06 18:33:41;;;;;;;7.28;6.55;;;;;;;;;;10129172;28;20105;-69
2022/09/06 18:38:38;;;;;;;7.28;6.65;;;;;;;;;;10129881;28;20042;-69
2022/09/06 18:43:36;;;;;;;9.35;6.53;;;;;;;;;;10144701;28;20043;-69
2022/09/06 18:48:33;;;;;;;6.85;6.20;;;;;;;;;;10140410;28;20052;-69
2022/09/06 18:53:29;;;;;;;9.65;6.50;;;;;;;;;;10149672;28;20145;-69
2022/09/06 18:58:26;;;;;;;8.43;6.47;;;;;;;;;;10141360;28;20113;-69
2022/09/06 19:03:22;;;;;;;8.15;6.63;;;;;;;;;;10145200;28;20060;-69
2022/09/06 19:08:18;;;;;;;10.50;8.43;;;;;;;;;;10142345;28;20144;-69
2022/09/06 19:13:15;;;;;;;7.15;6.50;;;;;;;;;;10146839;28;20397;-69
2022/09/06 19:18:11;;;;;;;7.88;7.13;;;;;;;;;;10147957;28;20116;-69
2022/09/06 19:23:07;;;;;;;6.70;6.20;;;;;;;;;;10136875;28;20077;-69
2022/09/06 19:28:04;;;;;;;10.25;6.53;;;;;;;;;;10137863;28;20070;-69
2022/09/06 19:33:00;;;;;;;7.43;6.72;;;;;;;;;;10147696;28;20051;-69
2022/09/06 19:37:56;;;;;;;7.25;6.20;;;;;;;;;;10147350;28;20108;-69
2022/09/06 19:42:53;;;;;;;10.60;6.85;;;;;;;;;;10134682;28;20054;-69
2022/09/06 19:47:49;;;;;;;7.40;6.63;;;;;;;;;;10149799;28;20066;-69
2022/09/06 19:52:46;;;;;;;8.50;6.53;;;;;;;;;;10142733;28;20412;-69
2022/09/06 19:57:42;;;;;;;6.40;5.90;;;;;;;;;;10143586;28;20134;-69
2022/09/06 20:02:38;;;;;;;7.25;6.40;;;;;;;;;;10145131;28;20112;-69
2022/09/06 20:07:35;;;;;;;9.25;6.45;;;;;;;;;;10147273;28;20072;-69
2022/09/06 20:12:31;;;;;;;9.75;7.18;;;;;;;;;;10133227;28;20504;-67
2022/09/06 20:17:27;;;;;;;6.65;6.13;;;;;;;;;;10144395;28;20046;-68
2022/09/06 20:22:30;;;;;;;7.43;5.83;;;;;;;;;;10144524;28;20043;-67
2022/09/06 20:27:26;;;;;;;7.57;6.70;;;;;;;;;;10148025;28;20129;-67
2022/09/06 20:32:22;;;;;;;6.22;5.53;;;;;;;;;;10127417;28;20073;-68
2022/09/06 20:37:19;;;;;;;11.82;5.85;;;;;;;;;;10136299;28;20133;-68
2022/09/06 20:42:15;;;;;;;7.07;6.45;;;;;;;;;;10133654;28;20108;-68
2022/09/06 20:47:11;;;;;;;9.52;6.03;;;;;;;;;;10135573;28;20101;-68
2022/09/06 20:52:08;;;;;;;7.53;5.78;;;;;;;;;;10135336;28;20051;-68
2022/09/06 20:57:04;;;;;;;6.70;6.10;;;;;;;;;;10132452;28;20082;-68
2022/09/06 21:02:06;;;;;;;7.35;6.55;;;;;;;;;;10137190;28;20054;-68
2022/09/06 21:07:11;;;;;;;6.72;6.03;;;;;;;;;;10144305;28;20077;-68
2022/09/06 21:12:11;;;;;;;6.38;5.88;;;;;;;;;;10139507;28;20069;-68
2022/09/06 21:17:15;;;;;;;6.95;6.25;;;;;;;;;;10129192;28;20061;-68
2022/09/06 21:22:12;;;;;;;7.97;5.95;;;;;;;;;;10150436;28;20181;-68
2022/09/06 21:27:11;;;;;;;6.18;5.57;;;;;;;;;;10145662;28;20437;-68
2022/09/06 21:32:18;;;;;;;7.63;5.90;;;;;;;;;;10140758;28;20055;-68
2022/09/06 21:37:27;;;;;;;7.65;5.75;;;;;;;;;;10131411;28;20069;-68
2022/09/06 21:42:29;;;;;;;7.15;6.15;;;;;;;;;;10142189;28;20058;-68
2022/09/06 21:47:28;;;;;;;7.00;6.30;;;;;;;;;;10147760;28;20162;-68
2022/09/06 21:52:31;;;;;;;7.50;5.95;;;;;;;;;;10137427;28;20042;-67
2022/09/06 21:57:31;;;;;;;7.07;6.15;;;;;;;;;;10141546;28;20082;-67
2022/09/06 22:02:35;;;;;;;8.70;6.03;;;;;;;;;;10152432;28;20423;-68
2022/09/06 22:07:37;;;;;;;6.68;6.18;;;;;;;;;;10143297;28;20042;-67
2022/09/06 22:12:49;;;;;;;5.90;5.40;;;;;;;;;;10149856;28;20097;-68
2022/09/06 22:17:48;;;;;;;6.23;5.73;;;;;;;;;;10139586;28;20141;-68
2022/09/06 22:22:51;;;;;;;10.18;6.10;;;;;;;;;;10142956;28;20070;-67
2022/09/06 22:27:54;;;;;;;5.85;5.30;;;;;;;;;;10145334;28;20049;-67
2022/09/06 22:32:56;;;;;;;11.00;6.25;;;;;;;;;;10146268;28;20042;-67
2022/09/06 22:37:55;;;;;;;5.95;5.43;;;;;;;;;;10137225;28;20042;-67
2022/09/06 22:42:51;;;;;;;6.18;5.63;;;;;;;;;;10148341;28;20089;-67
2022/09/06 22:47:49;;;;;;;7.50;5.20;;;;;;;;;;10129176;28;20062;-67
2022/09/06 22:52:49;;;;;;;6.63;5.22;;;;;;;;;;10139258;28;20035;-67
2022/09/06 22:57:56;;;;;;;7.53;5.15;;;;;;;;;;10143708;28;20141;-67
2022/09/06 23:02:53;;;;;;;5.60;5.10;;;;;;;;;;10143135;28;20204;-68
2022/09/06 23:07:55;;;;;;;7.22;5.10;;;;;;;;;;10143119;28;20043;-67
2022/09/06 23:13:00;;;;;;;5.80;5.30;;;;;;;;;;10144268;28;20043;-67
2022/09/06 23:18:00;;;;;;;5.65;5.15;;;;;;;;;;10148715;28;20097;-67
2022/09/06 23:23:01;;;;;;;7.22;5.43;;;;;;;;;;10132431;28;20050;-67
2022/09/06 23:28:09;;;;;;;6.60;5.13;;;;;;;;;;10153215;28;20038;-66
2022/09/06 23:33:05;;;;;;;6.85;5.00;;;;;;;;;;10151306;28;20043;-67
2022/09/06 23:38:11;;;;;;;6.40;5.80;;;;;;;;;;10155147;28;20050;-67
2022/09/06 23:43:10;;;;;;;5.97;5.38;;;;;;;;;;10144858;28;20066;-67
2022/09/06 23:48:08;;;;;;;6.95;6.22;;;;;;;;;;10151278;28;20070;-67
2022/09/06 23:53:04;;;;;;;5.72;5.18;;;;;;;;;;10150332;28;20125;-66
2022/09/06 23:58:02;;;;;;;8.10;5.45;;;;;;;;;;10156642;28;20042;-67
